Main page
METAR-TAF:

METAR-TAF

Airports :

Saint-Yan Airport

Saint-Yan, France

latitude: 46-24-45N, longitude: 004-00-48E, elevation: 244 m

Current weather observation

The report was made 26 minutes ago, at 23:00 UTC
Calm wind
Temperature 13°C
Humidity 77%
Pressure 998 hPa
Visibility 10 km or more
no clouds below 1500 m and no cumulonimbus

METAR: LFLN 222300Z AUTO 00000KT CAVOK 13/09 Q0998

Time: 01:26 (23:26 UTC)

Forecast

The report was made 6 hours and 26 minutes ago, at 17:00 UTC
Forecast valid from 22 at 18 UTC to 23 at 03 UTC
Wind 3 kt from variable directions
Visibility 10 km or more
no clouds below 1500 m and no cumulonimbus

TAF: LFLN 221700Z 2218/2303 VRB03KT CAVOK

Weather observations and forecasts of more than 4000 airports (METAR and TAF reports).

The available stations are represented by yellow and red dots on the map.

Hover mouse over dot to see the name of the station.

Then click to see weather observations and forecasts.

To change the map : click on the green buttons with a black cross to zoom in, on the green button with a dash to zoom out, or on the green arrows for adjacent maps.


METAR-TAF: